Time;durP1;ratioP1;P1;durP2;ratioP2;P2;SDS_P1;SDS_P2;PMS_P1;PMS_P2;Temp;Humidity;BMP_temperature;BMP_pressure;BME280_temperature;BME280_humidity;BME280_pressure;Samples;Min_cycle;Max_cycle;Signal;HPM_P1;HPM_P2
2023/02/09 00:00:01;;;;;;;30.05;13.35;;;-2.50;79.50;;;;;;5028245;28;20190;-75
2023/02/09 00:02:27;;;;;;;31.67;13.93;;;-2.50;79.50;;;;;;5021374;28;20643;-75
2023/02/09 00:04:53;;;;;;;32.27;13.90;;;-2.60;79.50;;;;;;5011106;28;20218;-75
2023/02/09 00:07:18;;;;;;;33.20;13.80;;;-2.60;79.50;;;;;;5018247;28;20209;-74
2023/02/09 00:09:44;;;;;;;32.73;13.27;;;-2.60;79.30;;;;;;5021739;28;20298;-75
2023/02/09 00:14:54;;;;;;;33.13;13.82;;;-2.70;79.30;;;;;;5019126;28;20208;-75
2023/02/09 00:17:20;;;;;;;33.90;13.10;;;-2.70;79.30;;;;;;5022870;28;20906;-75
2023/02/09 00:19:45;;;;;;;30.17;13.17;;;-2.70;79.30;;;;;;5020658;28;20637;-75
2023/02/09 00:22:11;;;;;;;32.00;13.90;;;-2.70;79.30;;;;;;5009291;28;20214;-76
2023/02/09 00:24:36;;;;;;;35.20;15.03;;;-2.70;79.50;;;;;;5012780;28;20220;-75
2023/02/09 00:27:02;;;;;;;40.30;14.80;;;-2.70;79.50;;;;;;5017921;28;20240;-76
2023/02/09 00:29:28;;;;;;;32.83;14.43;;;-2.70;79.50;;;;;;5019701;28;20194;-76
2023/02/09 00:31:53;;;;;;;35.20;14.77;;;-2.60;79.50;;;;;;5012727;28;20221;-76
2023/02/09 00:34:19;;;;;;;36.53;15.43;;;-2.60;79.30;;;;;;5011264;28;20201;-75
2023/02/09 00:36:45;;;;;;;31.33;15.27;;;-2.60;78.90;;;;;;5018231;28;20190;-76
2023/02/09 00:39:10;;;;;;;31.10;13.35;;;-2.70;79.00;;;;;;5016814;28;20660;-76
2023/02/09 00:44:20;;;;;;;32.08;13.82;;;-2.70;79.20;;;;;;5009711;28;20204;-75
2023/02/09 00:46:46;;;;;;;30.37;14.90;;;-2.70;79.20;;;;;;5012248;28;20178;-76
2023/02/09 00:49:12;;;;;;;31.23;13.82;;;-2.70;79.00;;;;;;5022373;28;20192;-75
2023/02/09 00:51:38;;;;;;;39.50;16.20;;;-2.80;79.20;;;;;;5011779;28;20205;-75
2023/02/09 00:54:03;;;;;;;33.10;15.23;;;-2.90;79.30;;;;;;5008021;28;20238;-75
2023/02/09 00:56:29;;;;;;;36.27;16.50;;;-2.90;79.70;;;;;;5014225;28;20185;-75
2023/02/09 00:58:54;;;;;;;34.77;14.80;;;-2.80;80.00;;;;;;5017636;28;20193;-76
2023/02/09 01:01:20;;;;;;;33.73;14.13;;;-2.80;80.00;;;;;;5019233;28;20201;-75
2023/02/09 01:03:46;;;;;;;33.17;14.90;;;-2.80;80.20;;;;;;5024696;28;20689;-75
2023/02/09 01:06:11;;;;;;;33.70;14.20;;;-2.90;80.20;;;;;;5026887;28;20191;-74
2023/02/09 01:08:37;;;;;;;35.40;15.60;;;-2.80;80.30;;;;;;5022552;28;20182;-75
2023/02/09 01:11:07;;;;;;;36.27;15.80;;;-2.90;80.20;;;;;;5020576;28;20190;-76
2023/02/09 01:13:33;;;;;;;34.80;15.95;;;-2.90;80.30;;;;;;5011070;28;20304;-76
2023/02/09 01:15:59;;;;;;;37.00;16.00;;;-3.00;80.50;;;;;;5019319;28;20232;-76
2023/02/09 01:18:24;;;;;;;34.20;14.67;;;-3.00;80.60;;;;;;5023006;28;20252;-76
2023/02/09 01:20:50;;;;;;;31.70;13.70;;;-3.00;80.30;;;;;;5018743;28;20174;-76
2023/02/09 01:23:15;;;;;;;41.37;15.67;;;-3.00;79.90;;;;;;5012946;28;20213;-75
2023/02/09 01:25:41;;;;;;;35.33;14.93;;;-3.00;79.60;;;;;;5027299;28;20177;-76
2023/02/09 01:28:06;;;;;;;33.50;14.27;;;-3.10;79.60;;;;;;5023064;28;20177;-75
2023/02/09 01:30:33;;;;;;;28.27;13.63;;;-3.10;79.60;;;;;;5020277;28;20186;-74
2023/02/09 01:32:58;;;;;;;41.80;15.90;;;-3.10;79.70;;;;;;5011940;28;20667;-75
2023/02/09 01:35:24;;;;;;;35.83;14.57;;;-3.10;79.90;;;;;;5011682;28;20212;-74
2023/02/09 01:37:49;;;;;;;44.00;16.30;;;-3.10;80.00;;;;;;5009832;28;20566;-76
2023/02/09 01:40:15;;;;;;;30.57;14.20;;;-3.10;80.00;;;;;;5017325;28;20223;-76
2023/02/09 01:42:41;;;;;;;33.03;15.03;;;-3.10;80.00;;;;;;5011100;28;20252;-75
2023/02/09 01:45:12;;;;;;;33.30;14.67;;;-3.10;80.00;;;;;;5018068;28;20572;-76
2023/02/09 01:47:48;;;;;;;43.90;16.88;;;-3.10;80.00;;;;;;5016540;28;20660;-76
2023/02/09 01:50:14;;;;;;;38.70;16.48;;;-3.10;80.00;;;;;;5015035;28;20184;-74
2023/02/09 01:52:41;;;;;;;42.63;15.00;;;-3.10;80.20;;;;;;5010123;28;20704;-76
2023/02/09 01:55:12;;;;;;;32.35;15.25;;;-3.00;80.30;;;;;;5013910;28;20189;-75
2023/02/09 01:57:44;;;;;;;36.15;15.70;;;-2.90;80.30;;;;;;5013552;28;20182;-74
2023/02/09 02:00:16;;;;;;;37.05;16.40;;;-2.80;80.00;;;;;;5020765;28;20200;-76
2023/02/09 02:02:46;;;;;;;39.70;16.52;;;-2.80;80.00;;;;;;5013268;28;20209;-75
2023/02/09 02:05:13;;;;;;;38.78;16.67;;;-2.80;80.20;;;;;;5014119;28;20189;-75
2023/02/09 02:07:54;;;;;;;40.13;17.58;;;-2.80;80.20;;;;;;5017897;28;20220;-74
2023/02/09 02:10:20;;;;;;;34.22;14.05;;;-2.90;80.20;;;;;;5016001;28;20213;-75
2023/02/09 02:12:46;;;;;;;32.65;15.15;;;-2.90;80.50;;;;;;5015786;28;20233;-75
2023/02/09 02:15:11;;;;;;;40.87;16.57;;;-3.00;80.60;;;;;;5027320;28;20663;-74
2023/02/09 02:17:59;;;;;;;41.43;15.50;;;-3.10;80.90;;;;;;5026867;28;20178;-75
2023/02/09 02:20:30;;;;;;;48.33;16.73;;;-3.20;81.20;;;;;;5015889;28;20181;-74
2023/02/09 02:23:23;;;;;;;38.72;16.88;;;-3.20;81.50;;;;;;5012048;28;20225;-76
2023/02/09 02:26:10;;;;;;;44.15;18.40;;;-3.30;81.80;;;;;;5026025;28;20189;-74
2023/02/09 02:28:43;;;;;;;44.38;17.15;;;-3.30;82.10;;;;;;5021535;28;20200;-75
2023/02/09 02:31:34;;;;;;;31.73;15.68;;;-3.40;82.10;;;;;;5016957;28;20536;-76
2023/02/09 02:34:22;;;;;;;35.08;15.90;;;-3.30;82.20;;;;;;5017052;28;20634;-76
2023/02/09 02:36:54;;;;;;;36.03;15.98;;;-3.40;82.10;;;;;;5019477;28;20182;-76
2023/02/09 02:39:24;;;;;;;36.17;16.00;;;-3.40;82.10;;;;;;5010937;28;20268;-75
2023/02/09 02:44:55;;;;;;;32.92;15.18;;;-3.40;81.80;;;;;;5018878;28;20528;-74
2023/02/09 02:47:22;;;;;;;37.00;15.68;;;-3.40;81.50;;;;;;5017285;28;20295;-75
2023/02/09 02:49:57;;;;;;;39.88;16.92;;;-3.50;81.50;;;;;;5022164;28;20601;-75
2023/02/09 02:52:23;;;;;;;38.80;17.58;;;-3.50;81.70;;;;;;5011718;28;20574;-75
2023/02/09 02:54:58;;;;;;;47.97;18.70;;;-3.50;81.80;;;;;;5012893;28;20186;-75
2023/02/09 02:57:28;;;;;;;43.92;17.88;;;-3.50;81.90;;;;;;5013083;28;20603;-74
2023/02/09 02:59:58;;;;;;;42.17;17.52;;;-3.50;81.90;;;;;;5013745;28;20650;-74
2023/02/09 03:02:36;;;;;;;39.47;18.05;;;-3.50;82.20;;;;;;5012263;28;20214;-74
2023/02/09 03:05:04;;;;;;;44.05;19.58;;;-3.60;82.50;;;;;;5010541;28;20189;-73
2023/02/09 03:07:31;;;;;;;43.75;17.40;;;-3.60;83.00;;;;;;5012805;28;20182;-75
2023/02/09 03:09:57;;;;;;;37.80;16.02;;;-3.50;83.30;;;;;;5013792;28;20193;-75
2023/02/09 03:12:37;;;;;;;43.43;19.40;;;-3.50;83.00;;;;;;5011264;28;20222;-76
2023/02/09 03:15:09;;;;;;;41.20;17.42;;;-3.40;82.80;;;;;;5015581;28;20649;-74
2023/02/09 03:18:01;;;;;;;40.95;17.50;;;-3.40;82.70;;;;;;5010666;28;20637;-76
2023/02/09 03:20:27;;;;;;;37.17;16.25;;;-3.40;82.70;;;;;;5014319;28;20177;-76
2023/02/09 03:22:59;;;;;;;41.80;17.73;;;-3.50;82.80;;;;;;5013984;28;20292;-75
2023/02/09 03:25:32;;;;;;;39.78;17.98;;;-3.50;83.00;;;;;;5015337;28;20188;-76
2023/02/09 03:28:13;;;;;;;56.95;20.42;;;-3.50;83.10;;;;;;5007164;28;20182;-75
2023/02/09 03:30:41;;;;;;;40.90;17.20;;;-3.50;83.10;;;;;;5014864;28;20186;-74
2023/02/09 03:33:23;;;;;;;42.13;19.05;;;-3.50;83.10;;;;;;5007232;28;20214;-75
2023/02/09 03:35:52;;;;;;;49.92;20.77;;;-3.50;83.00;;;;;;5012434;28;20182;-75
2023/02/09 03:38:18;;;;;;;40.28;18.92;;;-3.50;83.10;;;;;;5012456;28;20268;-73
2023/02/09 03:40:43;;;;;;;47.50;19.70;;;-3.50;83.10;;;;;;5015773;28;20289;-74
2023/02/09 03:43:12;;;;;;;46.80;17.90;;;-3.50;83.10;;;;;;5009283;28;20214;-74
2023/02/09 03:45:38;;;;;;;48.67;20.00;;;-3.60;83.10;;;;;;5016420;28;20182;-73
2023/02/09 03:48:04;;;;;;;45.40;19.03;;;-3.60;83.10;;;;;;5030680;28;20195;-74
2023/02/09 03:50:31;;;;;;;43.83;18.98;;;-3.60;83.10;;;;;;5032818;28;20460;-73
2023/02/09 03:52:57;;;;;;;43.65;18.35;;;-3.60;83.30;;;;;;5025681;28;20210;-74
2023/02/09 03:55:23;;;;;;;42.92;18.77;;;-3.70;83.30;;;;;;5029140;28;20193;-72
2023/02/09 03:57:48;;;;;;;42.90;19.03;;;-3.70;83.30;;;;;;5027656;28;20190;-75
2023/02/09 04:00:14;;;;;;;47.80;20.30;;;-3.70;83.40;;;;;;5022951;28;20961;-75
2023/02/09 04:02:40;;;;;;;51.42;20.60;;;-3.60;83.60;;;;;;5015707;28;20228;-75
2023/02/09 04:05:06;;;;;;;46.53;19.80;;;-3.70;83.30;;;;;;5012136;28;20265;-76
2023/02/09 04:07:32;;;;;;;41.95;19.92;;;-3.70;83.30;;;;;;5011548;28;20420;-76
2023/02/09 04:09:58;;;;;;;51.50;21.17;;;-3.80;83.60;;;;;;5018697;28;20555;-74
2023/02/09 04:12:23;;;;;;;48.60;19.10;;;-3.80;83.70;;;;;;5008491;28;20215;-76
2023/02/09 04:14:49;;;;;;;52.00;19.77;;;-3.80;84.00;;;;;;5011757;28;20205;-74
2023/02/09 04:17:14;;;;;;;40.53;18.47;;;-3.80;84.10;;;;;;5014963;28;20186;-75
2023/02/09 04:19:40;;;;;;;47.30;18.87;;;-3.80;84.40;;;;;;5012853;28;20186;-74
2023/02/09 04:22:07;;;;;;;36.87;18.20;;;-3.70;84.40;;;;;;5010664;28;20213;-75
2023/02/09 04:24:33;;;;;;;54.58;20.30;;;-3.70;84.30;;;;;;5013836;28;20654;-75
2023/02/09 04:26:58;;;;;;;47.70;20.63;;;-3.70;84.40;;;;;;5015814;28;20411;-75
2023/02/09 04:29:24;;;;;;;48.07;20.37;;;-3.80;84.40;;;;;;5013242;28;20427;-75
2023/02/09 04:31:49;;;;;;;51.17;19.70;;;-3.80;84.40;;;;;;5013701;28;20221;-75
2023/02/09 04:34:15;;;;;;;42.80;19.30;;;-3.90;84.70;;;;;;5010011;28;20201;-76
2023/02/09 04:36:40;;;;;;;46.73;20.53;;;-3.90;84.70;;;;;;5011798;28;20186;-75
2023/02/09 04:39:06;;;;;;;48.97;20.97;;;-3.80;85.00;;;;;;5011785;28;20186;-75
2023/02/09 04:41:32;;;;;;;44.13;18.13;;;-3.80;85.00;;;;;;5019076;28;20194;-75
2023/02/09 04:43:57;;;;;;;44.10;19.30;;;-3.80;84.90;;;;;;5013148;28;20177;-75
2023/02/09 04:46:23;;;;;;;44.70;18.87;;;-3.80;84.90;;;;;;5011525;28;20185;-75
2023/02/09 04:48:48;;;;;;;44.50;19.40;;;-3.70;84.70;;;;;;5023846;28;20184;-75
2023/02/09 04:51:14;;;;;;;46.20;18.57;;;-3.70;84.40;;;;;;5011393;28;20912;-75
2023/02/09 04:53:40;;;;;;;42.90;18.37;;;-3.80;84.00;;;;;;5003480;28;20209;-76
2023/02/09 04:56:06;;;;;;;42.77;20.20;;;-3.80;84.30;;;;;;5019311;28;20197;-75
2023/02/09 05:01:22;;;;;;;43.97;19.60;;;-3.70;84.30;;;;;;5013842;28;20709;-75
2023/02/09 05:03:47;;;;;;;54.33;20.35;;;-3.70;84.10;;;;;;5010821;28;20212;-75
2023/02/09 05:06:13;;;;;;;48.77;20.37;;;-3.80;84.10;;;;;;5016837;28;20186;-74
2023/02/09 05:08:38;;;;;;;53.80;21.20;;;-3.80;84.10;;;;;;5013185;28;20185;-76
2023/02/09 05:11:04;;;;;;;55.00;21.77;;;-3.80;84.30;;;;;;5013385;28;20661;-74
2023/02/09 05:13:30;;;;;;;56.37;21.90;;;-3.70;84.40;;;;;;5012214;28;20213;-76
2023/02/09 05:15:55;;;;;;;54.77;21.47;;;-3.70;84.40;;;;;;5021408;28;20936;-75
2023/02/09 05:18:23;;;;;;;53.50;20.33;;;-3.80;84.40;;;;;;5022632;28;20577;-74
2023/02/09 05:20:49;;;;;;;48.53;21.73;;;-3.80;84.40;;;;;;5015519;28;20710;-74
2023/02/09 05:23:15;;;;;;;55.50;22.70;;;-3.90;84.30;;;;;;5009014;28;20324;-74
2023/02/09 05:25:40;;;;;;;49.73;22.60;;;-4.00;84.40;;;;;;5011361;28;20460;-75
2023/02/09 05:28:06;;;;;;;48.43;21.13;;;-4.00;84.70;;;;;;5009572;28;20652;-74
2023/02/09 05:30:32;;;;;;;50.80;22.37;;;-4.00;84.90;;;;;;5011190;28;20193;-74
2023/02/09 05:32:58;;;;;;;52.57;22.20;;;-4.00;84.90;;;;;;5007756;28;20594;-75
2023/02/09 05:35:24;;;;;;;51.93;19.47;;;-4.00;85.20;;;;;;5016388;28;20603;-76
2023/02/09 05:37:50;;;;;;;56.90;20.75;;;-4.00;85.20;;;;;;5010874;28;20182;-75
2023/02/09 05:40:16;;;;;;;52.40;20.67;;;-3.90;85.30;;;;;;5009982;28;20198;-75
2023/02/09 05:42:42;;;;;;;52.13;23.38;;;-3.90;85.60;;;;;;5005802;28;20464;-75
2023/02/09 05:45:08;;;;;;;43.53;20.83;;;-3.90;85.50;;;;;;5010582;28;20256;-75
2023/02/09 05:47:34;;;;;;;57.75;23.83;;;-4.00;85.20;;;;;;5010811;28;20276;-74
2023/02/09 05:49:59;;;;;;;60.43;23.40;;;-4.00;85.20;;;;;;5012344;28;20265;-75
2023/02/09 05:52:26;;;;;;;65.40;21.90;;;-4.10;85.00;;;;;;5009429;28;20217;-75
2023/02/09 05:54:51;;;;;;;59.33;22.30;;;-4.00;85.30;;;;;;5011812;28;20186;-75
2023/02/09 05:57:17;;;;;;;54.20;22.47;;;-4.00;85.50;;;;;;5015100;28;20616;-75
2023/02/09 05:59:43;;;;;;;53.97;22.73;;;-4.10;85.30;;;;;;5015989;28;20178;-73
2023/02/09 06:02:09;;;;;;;57.63;23.57;;;-4.10;85.60;;;;;;5020400;28;20214;-74
2023/02/09 06:04:35;;;;;;;61.00;24.02;;;-4.10;85.60;;;;;;5023342;28;20178;-74
2023/02/09 06:07:01;;;;;;;55.90;22.73;;;-4.10;85.60;;;;;;5016437;28;20247;-75
2023/02/09 06:09:27;;;;;;;63.93;23.80;;;-4.10;85.60;;;;;;5014215;28;20642;-75
2023/02/09 06:11:52;;;;;;;58.43;23.57;;;-4.10;85.70;;;;;;5011300;28;20353;-75
2023/02/09 06:14:18;;;;;;;52.33;21.87;;;-4.20;85.90;;;;;;5011021;28;20428;-75
2023/02/09 06:16:44;;;;;;;55.83;21.73;;;-4.20;86.00;;;;;;5016055;28;20190;-75
2023/02/09 06:19:16;;;;;;;54.53;21.77;;;-4.10;85.90;;;;;;5016162;28;20876;-76
2023/02/09 06:21:42;;;;;;;57.80;22.38;;;-4.10;85.70;;;;;;5010381;28;20852;-75
2023/02/09 06:24:08;;;;;;;57.47;23.10;;;-4.20;85.90;;;;;;5013190;28;20185;-75
2023/02/09 06:26:33;;;;;;;52.70;22.87;;;-4.20;86.00;;;;;;5018028;28;20884;-76
2023/02/09 06:28:59;;;;;;;60.73;22.43;;;-4.20;86.00;;;;;;5019361;28;20189;-74
2023/02/09 06:31:24;;;;;;;62.03;24.87;;;-4.20;85.90;;;;;;5020272;28;20220;-74
2023/02/09 06:33:50;;;;;;;48.43;21.47;;;-4.20;86.00;;;;;;5019786;28;20922;-74
2023/02/09 06:36:16;;;;;;;59.30;23.63;;;-4.20;85.90;;;;;;5031411;28;20214;-74
2023/02/09 06:38:41;;;;;;;56.73;22.53;;;-4.20;85.90;;;;;;5018372;28;20189;-75
2023/02/09 06:41:07;;;;;;;61.00;22.47;;;-4.30;85.90;;;;;;5015100;28;20710;-75
2023/02/09 06:43:32;;;;;;;73.67;24.33;;;-4.30;86.20;;;;;;5009170;28;20221;-73
2023/02/09 06:46:03;;;;;;;77.57;24.07;;;-4.30;86.20;;;;;;5014280;28;20186;-74
2023/02/09 06:48:28;;;;;;;55.45;23.88;;;-4.30;86.00;;;;;;5025758;28;20194;-73
2023/02/09 06:50:54;;;;;;;52.93;23.10;;;-4.40;86.00;;;;;;5039371;28;20197;-75
2023/02/09 06:53:20;;;;;;;49.70;21.17;;;-4.40;86.00;;;;;;5008523;28;20225;-74
2023/02/09 06:55:45;;;;;;;64.47;23.77;;;-4.40;86.00;;;;;;5017003;28;20258;-75
2023/02/09 06:58:11;;;;;;;59.20;25.67;;;-4.40;86.20;;;;;;5014882;28;20189;-75
2023/02/09 07:00:36;;;;;;;64.23;23.43;;;-4.40;86.20;;;;;;5017807;28;20289;-74
2023/02/09 07:03:02;;;;;;;53.80;23.60;;;-4.40;86.50;;;;;;5018290;28;20216;-74
2023/02/09 07:05:27;;;;;;;57.80;23.33;;;-4.30;86.60;;;;;;5023166;28;20265;-74
2023/02/09 07:07:55;;;;;;;51.70;24.48;;;-4.20;86.80;;;;;;5021505;28;20229;-75
2023/02/09 07:10:21;;;;;;;58.80;23.27;;;-4.10;86.80;;;;;;5027003;28;20181;-74
2023/02/09 07:12:46;;;;;;;51.53;23.37;;;-4.10;86.60;;;;;;5027585;28;20240;-74
2023/02/09 07:15:13;;;;;;;61.67;25.33;;;-4.00;86.50;;;;;;5032762;28;20186;-75
2023/02/09 07:17:39;;;;;;;54.75;23.48;;;-4.00;86.20;;;;;;5020643;28;20182;-73
2023/02/09 07:20:05;;;;;;;62.73;25.20;;;-4.00;86.20;;;;;;5019984;28;20308;-76
2023/02/09 07:22:31;;;;;;;61.90;24.77;;;-4.00;86.00;;;;;;5016520;28;20468;-74
2023/02/09 07:24:57;;;;;;;93.80;28.08;;;-4.00;86.20;;;;;;5020545;28;20249;-75
2023/02/09 07:27:23;;;;;;;79.33;24.77;;;-3.90;85.70;;;;;;5026201;28;20284;-75
2023/02/09 07:29:48;;;;;;;72.33;24.93;;;-3.90;85.30;;;;;;5017743;28;20197;-75
2023/02/09 07:32:14;;;;;;;67.13;26.87;;;-4.00;85.20;;;;;;5018695;28;20214;-75
2023/02/09 07:34:39;;;;;;;63.43;25.90;;;-4.00;85.30;;;;;;5018297;28;20429;-73
2023/02/09 07:37:05;;;;;;;59.13;24.77;;;-3.90;85.50;;;;;;5018427;28;20182;-74
2023/02/09 07:39:31;;;;;;;68.67;25.57;;;-3.80;85.60;;;;;;5011606;28;20581;-75
2023/02/09 07:41:57;;;;;;;60.80;24.77;;;-3.70;85.60;;;;;;5011993;28;20221;-73
2023/02/09 07:44:26;;;;;;;55.67;24.02;;;-3.70;85.20;;;;;;5016753;28;20427;-75
2023/02/09 07:46:52;;;;;;;74.55;26.65;;;-3.60;85.00;;;;;;5012903;28;20670;-73
2023/02/09 07:49:17;;;;;;;74.93;28.20;;;-3.50;84.90;;;;;;5017850;28;20279;-75
2023/02/09 07:51:43;;;;;;;54.03;23.50;;;-3.50;84.70;;;;;;5010766;28;20213;-74
2023/02/09 07:54:12;;;;;;;55.10;24.90;;;-3.50;84.60;;;;;;5012699;28;20186;-74
2023/02/09 07:56:38;;;;;;;52.15;24.98;;;-3.40;84.40;;;;;;5013456;28;20178;-74
2023/02/09 07:59:05;;;;;;;67.75;26.60;;;-3.30;84.10;;;;;;5011331;28;20557;-74
2023/02/09 08:01:31;;;;;;;64.65;25.15;;;-3.30;83.80;;;;;;5012214;28;20243;-75
2023/02/09 08:03:58;;;;;;;63.20;25.35;;;-3.20;83.60;;;;;;5013409;28;21461;-75
2023/02/09 08:06:34;;;;;;;59.53;23.98;;;-3.20;83.40;;;;;;5020736;28;20246;-75
2023/02/09 08:09:01;;;;;;;63.97;25.95;;;-3.10;83.40;;;;;;5026577;28;20181;-75
2023/02/09 08:11:54;;;;;;;59.25;24.90;;;-3.10;83.40;;;;;;5017553;28;20185;-75
2023/02/09 08:14:33;;;;;;;64.38;27.15;;;-3.10;83.40;;;;;;5008268;28;21009;-74
2023/02/09 08:17:19;;;;;;;61.85;25.33;;;-3.10;83.40;;;;;;5010506;28;20297;-75
2023/02/09 08:19:57;;;;;;;59.65;26.15;;;-3.00;83.60;;;;;;5009929;28;20562;-75
2023/02/09 08:22:27;;;;;;;63.28;25.92;;;-2.90;83.60;;;;;;5011171;28;20220;-74
2023/02/09 08:24:52;;;;;;;58.97;24.95;;;-2.90;83.40;;;;;;5021795;28;20269;-75
2023/02/09 08:27:18;;;;;;;59.53;25.20;;;-2.70;83.10;;;;;;5013663;28;20282;-73
2023/02/09 08:29:44;;;;;;;59.80;26.30;;;-2.60;82.70;;;;;;5019251;28;20190;-73
2023/02/09 08:32:09;;;;;;;61.60;26.30;;;-2.50;82.40;;;;;;5014406;28;20241;-74
2023/02/09 08:34:35;;;;;;;67.47;26.40;;;-2.50;81.80;;;;;;5013624;28;20178;-74
2023/02/09 08:37:00;;;;;;;51.87;25.57;;;-2.40;81.70;;;;;;5011492;28;20292;-73
2023/02/09 08:39:26;;;;;;;62.23;26.63;;;-2.30;81.50;;;;;;5012660;28;20178;-74
2023/02/09 08:41:51;;;;;;;58.07;26.30;;;-2.40;81.20;;;;;;5008957;28;20681;-75
2023/02/09 08:44:17;;;;;;;57.13;23.87;;;-2.30;81.20;;;;;;5011455;28;20676;-74
2023/02/09 08:46:43;;;;;;;70.50;27.90;;;-2.30;81.10;;;;;;5013593;28;20221;-74
2023/02/09 08:49:08;;;;;;;65.03;25.90;;;-2.20;80.60;;;;;;5036531;28;20181;-75
2023/02/09 08:51:34;;;;;;;59.73;26.97;;;-2.10;80.20;;;;;;5041679;28;20216;-75
2023/02/09 08:53:59;;;;;;;59.17;25.73;;;-2.10;79.70;;;;;;5036098;28;20220;-74
2023/02/09 08:56:25;;;;;;;55.70;25.17;;;-2.10;79.70;;;;;;5025572;28;20193;-73
2023/02/09 08:58:50;;;;;;;62.63;27.10;;;-2.00;79.90;;;;;;5017721;28;20655;-74
2023/02/09 09:01:16;;;;;;;62.87;25.87;;;-1.90;79.60;;;;;;5019295;28;20271;-74
2023/02/09 09:03:41;;;;;;;70.90;27.60;;;-1.80;79.30;;;;;;5013855;28;20205;-74
2023/02/09 09:06:09;;;;;;;67.37;28.30;;;-1.70;79.00;;;;;;5020824;28;20205;-74
2023/02/09 09:08:36;;;;;;;58.88;26.60;;;-1.70;78.90;;;;;;5022279;28;20178;-74
2023/02/09 09:11:02;;;;;;;69.25;27.98;;;-1.70;78.70;;;;;;5020201;28;20184;-75
2023/02/09 09:13:28;;;;;;;54.78;25.10;;;-1.60;78.90;;;;;;5014518;28;20209;-74
2023/02/09 09:15:54;;;;;;;70.23;28.57;;;-1.50;78.90;;;;;;5015288;28;20526;-74
2023/02/09 09:18:21;;;;;;;70.35;27.67;;;-1.50;78.70;;;;;;5014396;28;20272;-74
2023/02/09 09:20:46;;;;;;;63.88;28.00;;;-1.50;78.70;;;;;;5016742;28;20570;-75
2023/02/09 09:23:12;;;;;;;63.70;26.70;;;-1.30;78.70;;;;;;5009177;28;20294;-74
2023/02/09 09:25:39;;;;;;;59.67;25.40;;;-1.20;78.60;;;;;;5017950;28;20295;-74
2023/02/09 09:28:05;;;;;;;73.80;27.13;;;-1.10;78.40;;;;;;5018023;28;20792;-75
2023/02/09 09:30:31;;;;;;;61.40;27.48;;;-1.10;77.80;;;;;;5015244;28;20189;-74
2023/02/09 09:32:57;;;;;;;66.17;27.80;;;-1.00;77.30;;;;;;5014214;28;20213;-75
2023/02/09 09:35:22;;;;;;;57.13;26.27;;;-0.90;77.40;;;;;;5012756;28;20307;-75
2023/02/09 09:37:48;;;;;;;74.57;28.63;;;-0.80;77.00;;;;;;5011101;28;20328;-75
2023/02/09 09:40:20;;;;;;;55.53;26.70;;;-0.80;76.70;;;;;;5019915;28;20189;-75
2023/02/09 09:42:55;;;;;;;63.45;29.63;;;-0.70;76.50;;;;;;5017899;28;20219;-75
2023/02/09 09:45:24;;;;;;;60.28;24.73;;;-0.70;76.80;;;;;;5030843;28;20205;-75
2023/02/09 09:47:50;;;;;;;60.78;26.52;;;-0.50;76.80;;;;;;5019584;28;20182;-75
2023/02/09 09:50:26;;;;;;;53.35;25.80;;;-0.40;76.10;;;;;;5010672;28;20204;-74
2023/02/09 09:53:00;;;;;;;59.03;24.67;;;-0.30;75.50;;;;;;5005401;28;20317;-76
2023/02/09 09:55:28;;;;;;;58.17;25.63;;;-0.20;75.10;;;;;;5012029;28;20239;-75
2023/02/09 09:57:57;;;;;;;60.65;26.30;;;-0.10;74.60;;;;;;5015727;28;20178;-76
2023/02/09 10:00:39;;;;;;;57.72;26.42;;;-0.10;74.50;;;;;;5016781;28;20263;-75
2023/02/09 10:03:15;;;;;;;54.83;25.17;;;0.00;74.30;;;;;;5006952;28;20228;-75
2023/02/09 10:05:43;;;;;;;50.22;25.30;;;0.30;74.20;;;;;;5011771;28;20177;-75
2023/02/09 10:08:17;;;;;;;62.20;25.92;;;0.90;74.80;;;;;;5012947;28;20251;-75
2023/02/09 10:11:01;;;;;;;57.22;24.27;;;1.30;73.20;;;;;;5014089;28;20659;-74
2023/02/09 10:13:38;;;;;;;54.97;25.38;;;1.30;71.70;;;;;;5014120;28;20245;-74
2023/02/09 10:16:23;;;;;;;56.38;26.65;;;1.20;71.30;;;;;;5016912;28;20251;-75
2023/02/09 10:18:56;;;;;;;55.40;23.58;;;1.00;71.30;;;;;;5014188;28;20277;-74
2023/02/09 10:21:24;;;;;;;56.40;24.70;;;1.00;71.80;;;;;;5017984;28;20239;-75
2023/02/09 10:24:10;;;;;;;55.88;24.58;;;1.00;72.00;;;;;;5017701;28;20233;-75
2023/02/09 10:26:36;;;;;;;54.15;24.40;;;1.10;72.70;;;;;;5027938;28;20196;-74
2023/02/09 10:29:11;;;;;;;58.60;25.67;;;1.10;72.90;;;;;;5024648;28;20182;-74
2023/02/09 10:31:49;;;;;;;54.05;23.67;;;1.20;72.90;;;;;;5028283;28;20196;-74
2023/02/09 10:34:27;;;;;;;57.85;24.80;;;1.30;72.60;;;;;;5021802;28;20201;-76
2023/02/09 10:37:17;;;;;;;48.33;24.30;;;1.40;72.40;;;;;;5024126;28;20201;-75
2023/02/09 10:39:45;;;;;;;62.63;24.27;;;1.40;71.70;;;;;;5038153;28;20177;-75
2023/02/09 10:42:23;;;;;;;47.22;23.73;;;1.40;71.60;;;;;;5021188;28;20201;-74
2023/02/09 10:44:52;;;;;;;54.20;23.90;;;1.50;71.70;;;;;;5017034;28;20182;-76
2023/02/09 10:47:17;;;;;;;63.22;25.50;;;1.80;71.80;;;;;;5021734;28;20185;-76
2023/02/09 10:49:49;;;;;;;55.37;22.80;;;2.30;71.70;;;;;;5017365;28;20667;-76
2023/02/09 10:52:18;;;;;;;48.03;22.83;;;2.90;69.40;;;;;;5007554;28;20222;-74
2023/02/09 10:54:47;;;;;;;47.53;22.33;;;3.60;66.60;;;;;;5012656;28;20488;-77
2023/02/09 10:57:20;;;;;;;50.80;22.73;;;4.20;65.70;;;;;;5012786;28;20428;-76
2023/02/09 10:59:54;;;;;;;49.80;22.80;;;4.80;64.70;;;;;;5012506;28;20505;-77
2023/02/09 11:02:41;;;;;;;47.53;22.43;;;5.50;63.40;;;;;;5010780;28;20480;-75
2023/02/09 11:05:19;;;;;;;50.00;24.30;;;6.10;58.00;;;;;;5018560;28;20419;-75
2023/02/09 11:07:52;;;;;;;55.53;25.63;;;6.30;56.80;;;;;;5025246;28;20501;-75
2023/02/09 11:10:19;;;;;;;44.43;23.73;;;6.50;55.80;;;;;;5018169;28;20546;-75
2023/02/09 11:12:45;;;;;;;51.87;24.53;;;6.60;54.90;;;;;;5021464;28;20483;-75
2023/02/09 11:15:15;;;;;;;48.77;24.80;;;6.60;54.40;;;;;;5016208;28;20528;-76
2023/02/09 11:17:48;;;;;;;55.43;24.20;;;6.50;54.40;;;;;;5013915;28;20178;-76
2023/02/09 11:20:19;;;;;;;49.97;25.23;;;6.60;55.70;;;;;;5020898;28;20498;-76
2023/02/09 11:23:29;;;;;;;55.73;23.90;;;6.40;54.40;;;;;;5015247;28;21316;-75
2023/02/09 11:26:07;;;;;;;52.20;23.80;;;6.30;55.20;;;;;;5022575;28;20746;-76
2023/02/09 11:28:38;;;;;;;52.23;24.67;;;6.10;54.50;;;;;;5008278;28;20409;-74
2023/02/09 11:31:22;;;;;;;49.63;24.27;;;5.90;55.30;;;;;;5009533;28;20432;-77
2023/02/09 11:34:01;;;;;;;48.90;23.20;;;5.70;56.50;;;;;;5013955;28;20562;-76
2023/02/09 11:36:33;;;;;;;54.57;24.50;;;5.80;56.40;;;;;;5013706;28;20460;-75
2023/02/09 11:39:01;;;;;;;50.30;25.00;;;5.70;56.10;;;;;;5018742;28;20969;-75
2023/02/09 11:44:40;;;;;;;55.77;29.40;;;5.40;57.20;;;;;;5014405;28;20482;-75
2023/02/09 11:47:13;;;;;;;51.20;24.27;;;5.20;58.20;;;;;;5016715;28;20499;-75
2023/02/09 11:49:52;;;;;;;48.13;22.10;;;5.10;58.10;;;;;;5016282;28;20439;-77
2023/02/09 11:52:35;;;;;;;52.63;23.60;;;5.10;58.40;;;;;;5013941;28;20576;-74
2023/02/09 11:55:07;;;;;;;52.33;23.73;;;4.80;58.50;;;;;;5027669;28;20417;-76
2023/02/09 11:57:41;;;;;;;48.40;23.10;;;4.60;59.70;;;;;;5013806;28;20431;-78
2023/02/09 12:00:18;;;;;;;45.97;22.97;;;4.90;59.50;;;;;;5019780;28;20938;-76
2023/02/09 12:02:50;;;;;;;50.40;22.77;;;4.90;59.10;;;;;;5013150;28;20551;-76
2023/02/09 12:05:18;;;;;;;53.17;23.77;;;4.90;58.70;;;;;;5015738;28;20979;-74
2023/02/09 12:07:44;;;;;;;47.60;23.63;;;4.90;59.10;;;;;;5016375;28;20451;-75
2023/02/09 12:10:19;;;;;;;56.20;23.40;;;4.60;59.30;;;;;;5019922;28;20477;-76
2023/02/09 12:12:53;;;;;;;50.77;24.43;;;4.40;60.40;;;;;;5012238;28;21150;-75
2023/02/09 12:15:27;;;;;;;53.13;24.03;;;4.50;60.70;;;;;;5021334;28;20430;-74
2023/02/09 12:18:02;;;;;;;47.33;23.23;;;4.70;60.40;;;;;;5017715;28;20518;-75
2023/02/09 12:20:44;;;;;;;54.33;24.03;;;4.90;59.90;;;;;;5014458;28;20507;-76
2023/02/09 12:23:09;;;;;;;47.57;23.60;;;5.00;59.30;;;;;;5005670;28;20495;-77
2023/02/09 12:25:55;;;;;;;56.03;26.13;;;4.90;59.30;;;;;;5015664;28;20471;-76
2023/02/09 12:28:26;;;;;;;47.53;22.90;;;4.80;59.70;;;;;;5015369;28;20185;-75
2023/02/09 12:30:51;;;;;;;51.73;23.93;;;4.80;59.90;;;;;;5015795;28;20431;-75
2023/02/09 12:33:21;;;;;;;64.63;25.20;;;4.90;59.60;;;;;;5020110;28;20483;-75
2023/02/09 12:36:08;;;;;;;55.13;22.60;;;5.10;59.10;;;;;;5018905;28;20717;-75
2023/02/09 12:38:52;;;;;;;50.27;22.20;;;5.20;59.20;;;;;;5015789;28;20498;-75
2023/02/09 12:41:21;;;;;;;48.90;23.40;;;5.20;59.20;;;;;;5025624;28;20511;-75
2023/02/09 12:43:48;;;;;;;46.10;21.30;;;5.00;59.20;;;;;;5022421;28;20476;-76
2023/02/09 12:46:28;;;;;;;43.00;22.10;;;5.00;59.60;;;;;;5021329;28;20480;-75
2023/02/09 12:49:12;;;;;;;52.20;22.90;;;5.10;59.30;;;;;;5016610;28;20894;-76
2023/02/09 12:51:53;;;;;;;46.93;22.87;;;5.20;58.90;;;;;;5017140;28;20424;-75